Lyttelton, South Africa
Current Conditions -  °F | °C
As of 12:00 AM on Sunday 21 Dec 2014 (Local Time) from FALA Reporting Station
NA  
Wind Chill: 63°   Ceiling: NA
Heat Index: 63°   Visibility: NA
Dew Point: 61°   Wind: 2mph
Humidity: 94%   Direction: NA
Pressure: 30.12"   Gusts: NA
Location:  25.83°S, 28.22°E
Report Text: FALA 202200Z AUTO VRB02KT //// // 17/16 Q1020
Loading
Personal Weather Stations






























Interactive Weather Map New forecast layout! Learn more

10-Day Weather Forecast

Advertisements
Track Severe Weather on mobile